Aviation Digital Data Service (ADDS)

Output produced by METARs form (1648 UTC 20 January 2019)
found at http://www.aviationweather.gov/metar/data/
 
ZMUB 201600Z 00000MPS 8000NW NSC M26/M31 Q1021 NOSIG RMK QFE657.8 65 NT
TAF ZMUB 201030Z 2012/2118 VRB02MPS 6000 SCT100 TNM28/2023Z TXM07/2107Z 
     BECMG 2100/2102 4000 FU 
     BECMG 2105/2107 6000